Time;durP1;ratioP1;P1;durP2;ratioP2;P2;SDS_P1;SDS_P2;PMS_P1;PMS_P2;Temp;Humidity;BMP_temperature;BMP_pressure;BME280_temperature;BME280_humidity;BME280_pressure;Samples;Min_cycle;Max_cycle;Signal;HPM_P1;HPM_P2
2022/07/06 00:01:39;;;;;;;4.87;2.80;;;;;;;18.45;66.48;100783.23;3527744;82;98838;-86
2022/07/06 00:06:40;;;;;;;5.05;2.62;;;;;;;18.40;66.82;100788.68;3520069;81;98898;-85
2022/07/06 00:11:42;;;;;;;4.25;2.65;;;;;;;18.36;67.09;100784.38;3516863;83;32549;-84
2022/07/06 00:16:43;;;;;;;6.95;3.17;;;;;;;18.30;67.32;100786.00;3513455;82;98747;-85
2022/07/06 00:21:44;;;;;;;6.70;3.12;;;;;;;18.25;67.38;100780.93;3529844;83;98799;-86
2022/07/06 00:26:45;;;;;;;9.28;3.58;;;;;;;18.23;67.98;100772.98;3514597;83;98871;-86
2022/07/06 00:31:46;;;;;;;8.00;2.90;;;;;;;18.22;68.20;100775.59;3524487;82;99345;-85
2022/07/06 00:36:47;;;;;;;5.37;2.80;;;;;;;18.19;68.33;100775.02;3502335;83;98877;-85
2022/07/06 00:41:48;;;;;;;7.78;2.60;;;;;;;18.13;68.45;100779.49;3535912;82;26763;-85
2022/07/06 00:46:49;;;;;;;6.03;2.80;;;;;;;18.07;68.43;100777.59;3535206;82;98801;-86
2022/07/06 00:51:50;;;;;;;6.28;2.87;;;;;;;17.98;68.36;100785.69;3541030;81;98693;-85
2022/07/06 00:56:51;;;;;;;7.42;2.92;;;;;;;17.90;68.84;100785.58;3535442;82;98841;-86
2022/07/06 01:01:53;;;;;;;7.90;3.15;;;;;;;17.86;68.94;100790.39;3544100;81;98828;-85
2022/07/06 01:06:56;;;;;;;5.40;2.77;;;;;;;17.78;69.31;100786.94;3534590;81;98924;-85
2022/07/06 01:11:58;;;;;;;7.03;3.17;;;;;;;17.75;69.60;100784.17;3615497;80;26043;-85
2022/07/06 01:16:59;;;;;;;5.87;3.00;;;;;;;17.71;69.87;100787.62;3538311;80;99261;-85
2022/07/06 01:22:03;;;;;;;4.77;2.73;;;;;;;17.66;70.00;100793.03;3515731;82;98702;-85
2022/07/06 01:27:07;;;;;;;6.08;2.75;;;;;;;17.58;70.10;100785.98;3467185;82;98932;-86
2022/07/06 01:32:08;;;;;;;5.53;2.95;;;;;;;17.54;70.39;100785.22;3524157;82;98903;-86
2022/07/06 01:37:09;;;;;;;5.20;2.83;;;;;;;17.49;70.81;100793.25;3511293;82;99332;-86
2022/07/06 01:42:10;;;;;;;5.33;3.17;;;;;;;17.45;70.94;100787.70;3543196;82;98863;-86
2022/07/06 01:47:12;;;;;;;8.23;3.10;;;;;;;17.39;71.04;100794.92;3565135;81;98962;-86
2022/07/06 01:52:13;;;;;;;7.70;3.10;;;;;;;17.33;71.32;100783.27;3519004;82;98720;-86
2022/07/06 01:57:14;;;;;;;5.57;3.17;;;;;;;17.31;71.50;100787.04;3522421;80;99243;-86
2022/07/06 02:02:15;;;;;;;9.17;3.70;;;;;;;17.24;71.25;100787.92;3527673;80;98805;-86
2022/07/06 02:07:16;;;;;;;6.93;3.50;;;;;;;17.13;71.27;100787.83;3490782;82;98835;-85
2022/07/06 02:12:17;;;;;;;7.70;3.53;;;;;;;17.09;72.13;100784.28;3563339;80;98799;-85
2022/07/06 02:17:19;;;;;;;6.57;3.47;;;;;;;17.03;72.29;100786.73;3515135;82;98791;-86
2022/07/06 02:22:20;;;;;;;9.93;3.80;;;;;;;16.96;72.51;100791.57;3522092;82;98662;-85
2022/07/06 02:27:21;;;;;;;7.40;3.70;;;;;;;16.91;72.79;100791.42;3443235;84;99315;-85
2022/07/06 02:32:22;;;;;;;8.03;4.27;;;;;;;16.89;73.13;100791.64;3525136;82;99290;-85
2022/07/06 02:37:23;;;;;;;6.25;3.80;;;;;;;16.86;73.38;100798.81;3498765;82;99164;-85
2022/07/06 02:42:24;;;;;;;9.33;4.17;;;;;;;16.82;73.64;100798.63;3498834;82;98776;-85
2022/07/06 02:47:26;;;;;;;9.93;4.00;;;;;;;16.79;73.94;100804.41;3473137;82;98882;-85
2022/07/06 02:52:27;;;;;;;7.13;4.27;;;;;;;16.78;74.22;100808.39;3521978;82;98742;-86
2022/07/06 02:57:28;;;;;;;7.92;4.40;;;;;;;16.79;74.44;100804.41;3518461;83;98882;-86
2022/07/06 03:02:29;;;;;;;7.58;3.83;;;;;;;16.78;74.35;100807.63;3523002;83;98934;-85
2022/07/06 03:07:30;;;;;;;10.20;3.80;;;;;;;16.71;74.11;100806.27;3528604;81;98913;-85
2022/07/06 03:12:31;;;;;;;9.97;4.40;;;;;;;16.70;74.36;100812.45;3574202;81;99015;-85
2022/07/06 03:17:32;;;;;;;8.23;4.20;;;;;;;16.73;74.93;100808.06;3516167;83;98586;-86
2022/07/06 03:22:33;;;;;;;8.73;3.87;;;;;;;16.77;74.97;100809.59;3516285;83;98679;-85
2022/07/06 03:27:35;;;;;;;8.27;4.13;;;;;;;16.75;75.00;100813.98;3517497;82;98901;-85
2022/07/06 03:32:36;;;;;;;12.37;4.70;;;;;;;16.66;75.48;100799.75;3583634;81;98865;-86
2022/07/06 03:37:37;;;;;;;8.07;4.83;;;;;;;16.82;75.48;100813.92;3576329;80;99569;-86
2022/07/06 03:42:39;;;;;;;12.27;4.13;;;;;;;16.85;75.62;100814.50;3584454;81;99225;-86
2022/07/06 03:47:40;;;;;;;9.67;4.33;;;;;;;16.90;75.85;100809.28;3574112;81;98916;-86
2022/07/06 03:52:41;;;;;;;9.30;4.63;;;;;;;16.95;75.71;100813.02;3508398;83;98717;-86
2022/07/06 03:57:42;;;;;;;8.20;4.20;;;;;;;17.01;76.00;100819.71;3505979;82;98833;-86
2022/07/06 04:02:43;;;;;;;10.63;4.57;;;;;;;17.08;75.82;100814.11;3574607;80;98815;-86
2022/07/06 04:07:44;;;;;;;7.90;3.97;;;;;;;17.14;75.96;100825.56;3567167;82;99036;-86
2022/07/06 04:12:45;;;;;;;8.00;4.47;;;;;;;17.22;75.83;100820.14;3576235;81;98821;-86
2022/07/06 04:17:52;;;;;;;8.68;4.10;;;;;;;17.27;75.69;100824.64;3547176;82;98612;-86
2022/07/06 04:22:53;;;;;;;8.15;3.80;;;;;;;17.33;75.84;100818.81;3508939;82;99144;-86
2022/07/06 04:27:54;;;;;;;9.68;4.00;;;;;;;17.39;75.81;100814.41;3495418;82;98787;-86
2022/07/06 04:32:57;;;;;;;7.17;4.17;;;;;;;17.50;75.84;100809.52;3479967;82;98865;-86
2022/07/06 04:37:58;;;;;;;8.28;3.92;;;;;;;17.61;75.48;100807.40;3475134;82;98922;-85
2022/07/06 04:43:00;;;;;;;8.53;5.43;;;;;;;17.72;75.47;100805.91;3556748;81;98884;-85
2022/07/06 04:48:00;;;;;;;11.40;5.37;;;;;;;17.84;75.44;100802.56;3495478;82;98666;-85
2022/07/06 04:53:01;;;;;;;9.00;4.30;;;;;;;17.92;75.79;100801.28;3443133;83;98116;-85
2022/07/06 04:58:02;;;;;;;6.97;4.15;;;;;;;18.06;75.64;100794.92;3486020;82;98662;-84
2022/07/06 05:03:03;;;;;;;12.00;5.55;;;;;;;18.21;75.35;100795.51;3435915;83;99181;-84
2022/07/06 05:08:04;;;;;;;13.35;5.78;;;;;;;18.32;75.67;100789.98;3433241;84;99275;-85
2022/07/06 05:13:05;;;;;;;8.60;4.00;;;;;;;18.50;75.23;100798.09;3517098;82;99080;-85
2022/07/06 05:18:06;;;;;;;8.18;4.35;;;;;;;18.66;75.41;100792.06;3467263;84;99134;-85
2022/07/06 05:23:07;;;;;;;6.15;3.30;;;;;;;18.91;75.08;100789.64;3515916;83;98478;-87
2022/07/06 05:28:08;;;;;;;8.60;3.20;;;;;;;19.24;74.64;100784.48;3511694;83;98910;-86
2022/07/06 05:33:09;;;;;;;7.12;3.10;;;;;;;19.74;74.49;100782.92;3448752;84;98945;-85
2022/07/06 05:38:10;;;;;;;36.17;6.12;;;;;;;20.40;74.80;100788.47;3491707;83;98965;-86
2022/07/06 05:43:14;;;;;;;6.55;3.10;;;;;;;21.12;73.37;100775.10;3456026;83;99525;-86
2022/07/06 05:53:35;;;;;;;9.38;3.45;;;;;;;22.87;70.13;100776.25;3518226;82;26600;-88
2022/07/06 05:58:36;;;;;;;7.72;2.25;;;;;;;23.86;68.92;100786.19;3529734;82;98747;-91
2022/07/06 06:03:37;;;;;;;4.85;2.02;;;;;;;24.64;65.43;100783.34;3564997;82;98829;-85
2022/07/06 06:08:38;;;;;;;7.08;2.17;;;;;;;25.08;62.58;100781.88;3550092;81;99094;-86
2022/07/06 06:13:39;;;;;;;13.98;2.47;;;;;;;25.78;61.30;100777.38;3522855;83;98909;-90
2022/07/06 06:18:40;;;;;;;8.60;2.50;;;;;;;26.40;58.89;100781.30;3632727;80;98972;-91
2022/07/06 06:23:41;;;;;;;6.25;2.50;;;;;;;26.71;56.90;100783.23;3644431;79;34857;-90
2022/07/06 06:28:41;;;;;;;6.10;2.45;;;;;;;27.18;56.25;100779.81;3640810;80;99068;-91
2022/07/06 06:33:42;;;;;;;6.85;2.52;;;;;;;27.75;54.92;100782.64;3646713;79;99085;-89
2022/07/06 06:38:43;;;;;;;7.80;2.30;;;;;;;28.24;53.68;100775.70;3645114;79;98456;-89
2022/07/06 06:43:45;;;;;;;5.33;1.87;;;;;;;28.51;51.97;100772.56;3642703;80;98820;-91
2022/07/06 06:48:46;;;;;;;6.47;1.90;;;;;;;28.57;51.34;100773.43;3593851;80;99382;-90
2022/07/06 06:53:48;;;;;;;6.60;2.33;;;;;;;28.37;50.61;100780.41;3596006;80;32467;-91
2022/07/06 06:58:48;;;;;;;5.03;1.60;;;;;;;28.13;48.83;100787.45;3584356;81;98824;-92
2022/07/06 07:03:52;;;;;;;4.90;1.90;;;;;;;27.79;49.16;100779.65;3599334;80;99060;-91
2022/07/06 07:08:53;;;;;;;5.20;2.37;;;;;;;27.51;49.11;100775.48;3585331;81;98865;-92
2022/07/06 07:13:53;;;;;;;8.05;2.52;;;;;;;27.27;49.37;100776.94;3586110;81;99152;-90
2022/07/06 07:18:54;;;;;;;7.42;2.95;;;;;;;27.09;49.72;100779.08;3581349;80;98898;-94
2022/07/06 07:23:55;;;;;;;6.40;3.33;;;;;;;26.99;50.31;100781.80;3578056;81;32482;-92
2022/07/06 07:28:56;;;;;;;8.40;3.47;;;;;;;26.89;50.45;100795.22;3587685;81;98684;-94
2022/07/06 07:33:58;;;;;;;8.83;4.33;;;;;;;26.66;50.28;100793.15;3593867;80;98644;-93
2022/07/06 07:38:59;;;;;;;13.65;4.37;;;;;;;26.35;50.90;100818.02;3584298;80;98826;-91
2022/07/06 07:44:00;;;;;;;7.22;3.00;;;;;;;25.77;52.03;100839.27;3595660;81;99043;-91
2022/07/06 07:49:01;;;;;;;6.12;3.45;;;;;;;25.14;52.42;100844.80;3600515;80;98980;-90
2022/07/06 07:54:02;;;;;;;5.92;2.60;;;;;;;24.32;53.38;100857.75;3614036;81;32497;-91
2022/07/06 07:59:03;;;;;;;7.45;2.85;;;;;;;23.89;54.07;100849.95;3602812;80;98980;-91
2022/07/06 08:04:04;;;;;;;6.55;2.70;;;;;;;23.47;54.62;100843.80;3588627;80;99053;-88
2022/07/06 08:09:07;;;;;;;4.67;2.17;;;;;;;23.12;55.41;100849.21;3606011;80;98762;-89
2022/07/06 08:14:08;;;;;;;5.08;2.25;;;;;;;22.79;56.17;100854.13;3605942;80;98955;-88
2022/07/06 08:19:13;;;;;;;6.65;2.47;;;;;;;22.65;56.56;100869.38;3605003;80;98669;-88
2022/07/06 08:24:13;;;;;;;6.17;2.55;;;;;;;22.53;57.18;100865.96;3593977;81;98868;-86
2022/07/06 08:29:14;;;;;;;7.77;2.20;;;;;;;22.41;58.09;100874.33;3607098;80;99228;-87
2022/07/06 08:34:15;;;;;;;3.50;1.25;;;;;;;22.21;58.54;100886.33;3610216;82;98634;-89
2022/07/06 08:39:17;;;;;;;3.10;1.50;;;;;;;22.14;58.80;100883.14;3604487;81;98879;-87
2022/07/06 08:44:19;;;;;;;3.87;1.87;;;;;;;22.13;58.92;100883.58;3519031;82;99316;-86
2022/07/06 08:49:20;;;;;;;4.10;1.40;;;;;;;22.24;58.89;100889.66;3510773;83;99176;-85
2022/07/06 08:54:22;;;;;;;5.27;1.73;;;;;;;22.28;58.55;100879.14;3548178;83;98842;-85
2022/07/06 08:59:24;;;;;;;2.72;1.00;;;;;;;22.32;58.34;100884.80;3544273;83;98533;-86
2022/07/06 09:04:26;;;;;;;4.67;1.30;;;;;;;22.28;57.86;100882.70;3544327;83;98757;-86
2022/07/06 09:09:33;;;;;;;3.40;0.90;;;;;;;22.28;57.33;100879.14;3509400;82;98962;-86
2022/07/06 09:14:34;;;;;;;2.95;1.00;;;;;;;22.32;57.57;100880.59;3515098;82;98900;-86
2022/07/06 09:19:36;;;;;;;4.58;1.25;;;;;;;22.48;57.54;100862.91;3510593;83;99493;-87
2022/07/06 09:24:43;;;;;;;3.37;1.30;;;;;;;22.69;57.56;100872.88;3513106;82;98865;-87
2022/07/06 09:29:45;;;;;;;2.25;1.47;;;;;;;22.77;56.18;100877.66;3511325;83;98374;-88
2022/07/06 09:34:47;;;;;;;3.85;1.10;;;;;;;22.82;55.75;100876.45;3516539;83;98704;-87
2022/07/06 09:39:48;;;;;;;6.58;1.75;;;;;;;22.96;55.43;100873.81;3543575;83;99201;-91
2022/07/06 09:44:49;;;;;;;3.60;1.20;;;;;;;23.09;53.42;100852.11;3517104;83;98848;-89
2022/07/06 09:49:52;;;;;;;5.87;1.62;;;;;;;23.24;54.70;100847.63;3508372;82;98863;-89
2022/07/06 09:54:53;;;;;;;3.72;1.02;;;;;;;23.49;53.76;100846.93;3487664;82;98860;-89
2022/07/06 09:59:54;;;;;;;3.45;1.20;;;;;;;23.73;52.93;100844.48;3515549;83;98263;-88
2022/07/06 10:04:56;;;;;;;4.33;1.50;;;;;;;23.79;52.14;100852.48;3571743;81;97772;-89
2022/07/06 10:09:57;;;;;;;6.28;1.90;;;;;;;23.95;51.81;100849.52;3576676;81;98730;-88
2022/07/06 10:14:59;;;;;;;2.10;1.20;;;;;;;24.28;51.85;100845.05;3579243;82;99207;-87
2022/07/06 10:20:02;;;;;;;3.40;1.35;;;;;;;24.62;51.37;100847.78;3567754;81;98903;-88
2022/07/06 10:25:05;;;;;;;4.60;1.47;;;;;;;24.79;48.85;100844.23;3569395;81;98967;-92
2022/07/06 10:30:08;;;;;;;2.83;1.20;;;;;;;24.92;48.38;100845.53;3565359;82;98533;-89
2022/07/06 10:35:10;;;;;;;4.15;1.20;;;;;;;24.92;48.09;100844.13;3579573;80;98648;-92
2022/07/06 10:45:34;;;;;;;2.45;1.10;;;;;;;25.88;45.90;100857.25;3474089;81;99244;-87
2022/07/06 10:50:35;;;;;;;3.62;0.88;;;;;;;26.35;46.18;100867.41;3520069;82;99216;-86
2022/07/06 10:55:40;;;;;;;3.40;1.00;;;;;;;27.11;43.94;100859.90;3481995;82;98931;-88
2022/07/06 11:00:56;;;;;;;3.60;1.00;;;;;;;27.34;42.47;100850.05;3467312;83;99112;-92
2022/07/06 11:06:09;;;;;;;5.28;1.22;;;;;;;27.53;42.65;100839.39;3479002;83;26001;-87
2022/07/06 11:11:24;;;;;;;2.87;1.02;;;;;;;27.50;41.32;100851.66;3521972;82;98477;-89
2022/07/06 11:16:27;;;;;;;;;;;;;;;27.65;40.93;100849.05;3518204;82;99209;-93
2022/07/06 11:21:41;;;;;;;3.50;0.80;;;;;;;27.69;39.60;100841.13;3480813;83;84106;-94
2022/07/06 11:26:46;;;;;;;4.30;1.30;;;;;;;27.49;41.48;100839.59;3474777;84;99281;-90
2022/07/06 11:31:50;;;;;;;9.60;1.60;;;;;;;27.62;40.17;100847.81;3480978;83;98059;-93
2022/07/06 11:36:58;;;;;;;3.95;0.88;;;;;;;27.19;39.51;100840.72;3467163;82;99324;-91
2022/07/06 11:42:03;;;;;;;4.00;0.90;;;;;;;27.53;40.28;100844.43;3475142;84;25954;-88
2022/07/06 11:47:07;;;;;;;3.00;0.90;;;;;;;27.78;38.92;100841.09;3482889;82;98999;-88
2022/07/06 11:52:13;;;;;;;1.57;0.95;;;;;;;27.92;39.05;100818.33;3528814;82;98732;-90
2022/07/06 11:57:16;;;;;;;3.80;0.80;;;;;;;28.31;38.24;100823.42;3576606;81;98850;-92
2022/07/06 12:02:17;;;;;;;1.98;0.85;;;;;;;28.69;38.88;100824.72;3587173;81;98817;-94
2022/07/06 12:07:19;;;;;;;3.33;1.40;;;;;;;29.01;37.76;100823.69;3578374;81;98822;-91
2022/07/06 12:12:20;;;;;;;3.45;0.98;;;;;;;28.78;37.36;100825.23;3575174;81;98864;-89
2022/07/06 12:17:21;;;;;;;4.87;0.72;;;;;;;28.56;36.60;100822.82;3577000;81;98522;-95
2022/07/06 12:22:26;;;;;;;3.17;0.78;;;;;;;28.36;35.51;100812.04;3584136;82;98763;-91
2022/07/06 12:27:27;;;;;;;2.50;0.70;;;;;;;27.91;33.40;100828.89;3578677;81;98782;-90
2022/07/06 12:32:28;;;;;;;2.42;0.80;;;;;;;27.65;34.04;100832.69;3580252;81;99288;-91
2022/07/06 12:37:29;;;;;;;2.92;1.20;;;;;;;27.67;35.51;100823.11;3566006;81;98901;-95
2022/07/06 12:42:30;;;;;;;5.45;0.80;;;;;;;27.61;35.85;100840.57;3570509;80;99020;-90
2022/07/06 12:47:31;;;;;;;4.37;0.90;;;;;;;27.83;36.52;100839.00;3577002;81;98588;-88
2022/07/06 12:52:32;;;;;;;5.62;1.17;;;;;;;27.77;35.53;100833.84;3575898;81;98644;-90
2022/07/06 12:57:45;;;;;;;3.30;0.68;;;;;;;27.75;36.28;100834.98;3569843;81;99143;-95
2022/07/06 13:02:53;;;;;;;2.08;0.75;;;;;;;27.54;36.37;100847.41;3564215;81;99380;-93
2022/07/06 13:07:56;;;;;;;4.83;1.32;;;;;;;27.36;36.67;100846.09;3498509;83;99174;-94
2022/07/06 13:12:57;;;;;;;2.65;0.68;;;;;;;27.41;36.33;100846.85;3465537;84;99420;-89
2022/07/06 13:17:58;;;;;;;5.40;0.85;;;;;;;27.45;35.91;100842.42;3520752;83;98681;-96
2022/07/06 13:22:59;;;;;;;3.40;1.07;;;;;;;27.68;36.80;100838.80;3458411;84;98669;-93
2022/07/06 13:28:01;;;;;;;5.53;0.83;;;;;;;27.87;35.55;100831.73;3469240;83;98933;-92
2022/07/06 13:33:01;;;;;;;4.62;1.32;;;;;;;27.47;35.33;100842.74;3511509;83;98865;-89
2022/07/06 13:38:03;;;;;;;2.15;0.75;;;;;;;27.40;35.51;100855.19;3506801;82;98961;-88
2022/07/06 13:43:04;;;;;;;3.90;0.80;;;;;;;27.24;35.44;100850.61;3511104;83;99118;-95
2022/07/06 13:48:05;;;;;;;3.87;1.00;;;;;;;27.12;35.46;100861.45;3506217;82;99285;-90
2022/07/06 13:53:06;;;;;;;3.02;1.12;;;;;;;26.92;35.57;100860.63;3516637;83;98921;-92
2022/07/06 13:58:08;;;;;;;0.75;0.50;;;;;;;26.80;36.05;100861.63;3460520;84;99227;-89
2022/07/06 14:03:09;;;;;;;3.72;0.90;;;;;;;26.59;35.90;100858.41;3513931;83;99360;-93
2022/07/06 14:08:10;;;;;;;2.80;0.85;;;;;;;26.52;35.85;100857.32;3509635;83;98861;-91
2022/07/06 14:13:11;;;;;;;2.42;0.80;;;;;;;26.35;36.13;100856.73;3516392;83;98909;-93
2022/07/06 14:18:14;;;;;;;3.35;0.72;;;;;;;26.40;36.16;100844.81;3454670;84;98533;-87
2022/07/06 14:23:16;;;;;;;2.15;0.70;;;;;;;26.20;36.21;100845.98;3397168;86;26582;-90
2022/07/06 14:28:17;;;;;;;2.52;0.80;;;;;;;26.18;36.51;100846.45;3500150;83;98935;-91
2022/07/06 14:33:19;;;;;;;3.80;0.80;;;;;;;26.05;35.42;100833.13;3517731;83;99122;-96
2022/07/06 14:38:20;;;;;;;3.77;1.20;;;;;;;25.66;35.68;100834.08;3470620;84;99386;-94
2022/07/06 14:43:22;;;;;;;2.00;0.60;;;;;;;25.63;36.33;100835.65;3467411;84;98112;-95
2022/07/06 14:48:23;;;;;;;2.90;0.93;;;;;;;25.64;36.92;100835.19;3471298;82;99108;-91
2022/07/06 14:53:24;;;;;;;4.03;1.00;;;;;;;25.66;37.33;100838.95;3576270;82;26389;-94
2022/07/06 14:58:25;;;;;;;2.95;0.68;;;;;;;25.63;37.50;100839.88;3557102;82;98760;-96
2022/07/06 15:03:27;;;;;;;2.92;0.90;;;;;;;25.69;37.70;100838.00;3561303;81;98125;-92
2022/07/06 15:08:29;;;;;;;4.00;0.80;;;;;;;25.64;37.73;100842.23;3556278;81;98624;-90
2022/07/06 15:13:30;;;;;;;5.12;1.07;;;;;;;25.67;38.23;100845.51;3571825;81;99306;-96
2022/07/06 15:18:31;;;;;;;1.62;0.60;;;;;;;25.74;38.30;100845.22;3572835;81;98942;-94
2022/07/06 15:23:32;;;;;;;1.57;0.53;;;;;;;25.63;38.19;100836.45;3581196;81;25898;-91
2022/07/06 15:28:33;;;;;;;4.20;0.95;;;;;;;25.51;38.04;100844.41;3570696;81;98602;-90
2022/07/06 15:33:34;;;;;;;2.17;0.62;;;;;;;25.42;38.67;100831.73;3564200;81;98572;-92
2022/07/06 15:38:36;;;;;;;2.45;0.80;;;;;;;25.38;38.76;100838.75;3552335;81;98926;-90
2022/07/06 15:43:37;;;;;;;2.98;0.75;;;;;;;25.38;38.91;100833.12;3575833;81;98824;-92
2022/07/06 15:48:39;;;;;;;2.72;0.50;;;;;;;25.22;38.80;100834.17;3576474;80;98935;-90
2022/07/06 15:53:40;;;;;;;2.40;0.70;;;;;;;25.14;39.14;100836.35;3645147;80;26425;-89
2022/07/06 15:58:42;;;;;;;3.65;0.53;;;;;;;24.98;39.17;100829.58;3581288;81;99372;-93
2022/07/06 16:03:43;;;;;;;11.57;2.37;;;;;;;24.86;39.26;100827.06;3585121;81;98867;-93
2022/07/06 16:08:44;;;;;;;1.92;0.88;;;;;;;24.82;39.74;100819.99;3566107;81;99354;-93
2022/07/06 16:13:46;;;;;;;4.12;0.70;;;;;;;24.68;39.21;100820.59;3545800;81;97951;-90
2022/07/06 16:18:47;;;;;;;2.08;0.70;;;;;;;24.38;38.77;100822.75;3550601;82;98779;-94
2022/07/06 16:23:48;;;;;;;2.72;0.85;;;;;;;24.00;39.18;100818.00;3537448;82;25828;-95
2022/07/06 16:28:50;;;;;;;4.45;1.15;;;;;;;23.87;39.83;100820.85;3558313;81;98751;-94
2022/07/06 16:33:51;;;;;;;1.02;0.60;;;;;;;23.78;40.17;100819.40;3555093;82;98650;-93
2022/07/06 16:38:52;;;;;;;1.50;0.60;;;;;;;23.51;40.29;100816.98;3547763;82;98813;-94
2022/07/06 16:43:53;;;;;;;4.80;1.25;;;;;;;23.37;40.75;100826.69;3556552;81;98820;-89
2022/07/06 16:48:54;;;;;;;3.33;0.82;;;;;;;23.22;41.15;100824.84;3541125;81;98795;-94
2022/07/06 16:53:55;;;;;;;3.27;0.60;;;;;;;23.17;41.44;100832.39;3519110;82;25994;-91
2022/07/06 16:58:56;;;;;;;2.30;0.70;;;;;;;22.94;41.76;100832.78;3517137;80;98742;-89
2022/07/06 17:03:57;;;;;;;3.65;0.98;;;;;;;22.79;41.55;100821.24;3513002;82;98646;-93
2022/07/06 17:08:58;;;;;;;2.15;0.75;;;;;;;22.72;42.13;100822.85;3505882;82;99204;-88
2022/07/06 17:13:59;;;;;;;2.00;0.70;;;;;;;22.65;42.38;100818.08;3456453;84;98945;-87
2022/07/06 17:19:00;;;;;;;1.42;0.65;;;;;;;22.61;42.35;100818.84;3522536;82;98963;-90
2022/07/06 17:24:01;;;;;;;5.28;0.75;;;;;;;22.45;42.36;100814.09;3517532;82;33028;-87
2022/07/06 17:29:03;;;;;;;1.47;0.55;;;;;;;22.35;42.86;100808.80;3526494;82;98883;-88
2022/07/06 17:34:06;;;;;;;3.02;0.70;;;;;;;22.25;43.22;100814.91;3508417;82;99255;-88
2022/07/06 17:39:07;;;;;;;5.28;0.88;;;;;;;22.11;43.26;100820.94;3510108;82;98866;-89
2022/07/06 17:44:08;;;;;;;2.30;0.53;;;;;;;21.99;43.65;100816.09;3513454;82;98788;-89
2022/07/06 17:49:09;;;;;;;1.95;0.57;;;;;;;21.85;44.11;100816.49;3506548;82;98886;-87
2022/07/06 17:54:10;;;;;;;1.95;0.62;;;;;;;21.80;44.66;100819.84;3517738;82;31161;-86
2022/07/06 17:59:11;;;;;;;4.37;0.80;;;;;;;21.59;44.52;100817.59;3511346;83;99212;-89
2022/07/06 18:04:12;;;;;;;3.95;1.12;;;;;;;21.45;44.81;100822.80;3515958;83;98837;-87
2022/07/06 18:09:13;;;;;;;2.05;0.57;;;;;;;21.37;45.15;100822.84;3506868;82;98910;-89
2022/07/06 18:14:17;;;;;;;2.53;0.60;;;;;;;21.20;45.09;100822.69;3514363;83;98890;-86
2022/07/06 18:19:17;;;;;;;2.95;0.80;;;;;;;21.10;45.35;100816.75;3506824;82;99000;-87
2022/07/06 18:24:18;;;;;;;2.15;0.90;;;;;;;20.99;45.80;100814.84;3510943;83;98003;-87
2022/07/06 18:29:20;;;;;;;3.53;0.90;;;;;;;20.91;46.36;100809.23;3501092;83;99247;-89
2022/07/06 18:34:25;;;;;;;6.20;1.10;;;;;;;20.78;47.05;100809.73;3508783;81;97864;-89
2022/07/06 18:39:26;;;;;;;2.37;0.90;;;;;;;20.63;47.47;100806.50;3503700;82;99010;-89
2022/07/06 18:44:27;;;;;;;3.50;1.20;;;;;;;20.55;47.43;100798.08;3514419;81;98955;-88
2022/07/06 18:49:28;;;;;;;2.53;0.90;;;;;;;20.44;48.01;100802.37;3511690;82;98808;-86
2022/07/06 18:54:29;;;;;;;4.33;1.62;;;;;;;20.34;48.67;100805.59;3586691;81;99276;-87
2022/07/06 18:59:30;;;;;;;3.37;0.70;;;;;;;20.23;49.15;100808.44;3578903;81;98734;-88
2022/07/06 19:04:31;;;;;;;5.30;1.07;;;;;;;20.12;49.57;100807.25;3582448;81;99270;-87
2022/07/06 19:09:32;;;;;;;5.07;0.77;;;;;;;20.05;50.18;100816.39;3576223;81;99001;-88
2022/07/06 19:14:34;;;;;;;3.03;0.90;;;;;;;19.97;50.63;100807.97;3576184;81;98856;-86
2022/07/06 19:19:35;;;;;;;3.17;1.17;;;;;;;19.85;50.71;100813.62;3578269;80;98826;-87
2022/07/06 19:24:35;;;;;;;1.67;0.87;;;;;;;19.76;51.12;100823.77;3580412;80;98932;-87
2022/07/06 19:29:36;;;;;;;3.03;0.70;;;;;;;19.70;51.64;100815.11;3574478;81;98768;-87
2022/07/06 19:34:37;;;;;;;3.12;0.78;;;;;;;19.61;51.38;100819.08;3582066;81;99052;-89
2022/07/06 19:39:39;;;;;;;3.87;0.93;;;;;;;19.52;51.54;100823.66;3561143;81;98643;-87
2022/07/06 19:44:40;;;;;;;2.00;0.65;;;;;;;19.39;52.06;100831.86;3581534;81;99215;-87
2022/07/06 19:49:41;;;;;;;3.33;0.80;;;;;;;19.34;52.60;100832.98;3577941;81;98921;-90
2022/07/06 19:54:42;;;;;;;4.50;0.93;;;;;;;19.23;52.48;100835.94;3549746;82;98755;-88
2022/07/06 19:59:43;;;;;;;3.08;0.53;;;;;;;19.09;51.79;100845.14;3538786;82;98503;-87
2022/07/06 20:04:44;;;;;;;3.52;0.98;;;;;;;18.91;52.33;100844.03;3479011;83;98698;-88
2022/07/06 20:09:45;;;;;;;4.42;1.10;;;;;;;18.79;53.09;100839.05;3479935;82;99713;-87
2022/07/06 20:14:47;;;;;;;2.90;0.90;;;;;;;18.69;52.81;100835.04;3535995;82;99168;-88
2022/07/06 20:19:49;;;;;;;2.37;0.65;;;;;;;18.60;54.00;100842.55;3532808;81;99368;-87
2022/07/06 20:24:50;;;;;;;1.10;0.62;;;;;;;18.52;54.71;100842.45;3486151;83;98890;-88
2022/07/06 20:29:51;;;;;;;4.25;1.00;;;;;;;18.49;56.12;100846.69;3539398;82;98656;-85
2022/07/06 20:34:52;;;;;;;2.33;0.82;;;;;;;18.44;56.52;100840.19;3534620;82;98607;-87
2022/07/06 20:39:53;;;;;;;6.17;1.40;;;;;;;18.40;57.12;100840.24;3537372;81;98676;-88
2022/07/06 20:44:54;;;;;;;5.33;1.55;;;;;;;18.36;57.40;100833.15;3532087;83;98894;-88
2022/07/06 20:49:55;;;;;;;5.85;1.20;;;;;;;18.30;57.94;100830.00;3534819;81;98923;-88
2022/07/06 20:54:56;;;;;;;4.58;1.57;;;;;;;18.28;58.67;100828.84;3569846;81;98803;-88
2022/07/06 20:59:57;;;;;;;3.25;1.10;;;;;;;18.23;58.71;100831.50;3574997;81;98515;-88
2022/07/06 21:04:58;;;;;;;3.90;0.80;;;;;;;18.03;58.38;100815.86;3570986;81;99088;-87
2022/07/06 21:09:59;;;;;;;4.05;1.17;;;;;;;18.03;58.38;100815.86;3573532;81;99206;-92
2022/07/06 21:15:00;;;;;;;5.90;1.15;;;;;;;18.05;57.41;100832.94;3542410;82;98894;-88
2022/07/06 21:20:02;;;;;;;2.80;0.98;;;;;;;17.99;58.88;100830.43;3568156;81;98899;-88
2022/07/06 21:25:03;;;;;;;5.75;1.15;;;;;;;17.98;59.78;100826.84;3580924;81;98771;-88
2022/07/06 21:30:06;;;;;;;5.17;1.00;;;;;;;17.97;59.83;100835.02;3566627;81;98820;-90
2022/07/06 21:35:07;;;;;;;3.85;1.17;;;;;;;17.92;59.04;100828.52;3547465;81;98494;-89
2022/07/06 21:40:09;;;;;;;5.92;1.42;;;;;;;17.86;60.00;100830.18;3566865;81;98744;-88
2022/07/06 21:45:10;;;;;;;4.47;1.00;;;;;;;17.86;60.89;100824.61;3574110;81;99348;-88
2022/07/06 21:50:11;;;;;;;3.00;1.15;;;;;;;17.85;60.69;100824.43;3584779;81;98913;-87
2022/07/06 21:55:12;;;;;;;3.75;0.90;;;;;;;17.74;60.56;100825.75;3501813;82;99307;-89
2022/07/06 22:00:15;;;;;;;3.95;1.10;;;;;;;17.70;61.26;100818.03;3509144;83;99322;-84
2022/07/06 22:05:15;;;;;;;2.60;1.20;;;;;;;17.68;61.55;100816.28;3454317;84;34796;-85
2022/07/06 22:10:16;;;;;;;4.34;1.26;;;;;;;17.69;61.99;100822.83;3497978;83;98673;-85
2022/07/06 22:15:17;;;;;;;1.80;0.90;;;;;;;17.68;62.32;100817.08;3513548;82;98939;-85
2022/07/06 22:20:18;;;;;;;2.27;0.93;;;;;;;17.70;62.78;100818.03;3507487;82;99305;-84
2022/07/06 22:25:19;;;;;;;2.37;1.10;;;;;;;17.67;62.15;100816.90;3517279;82;98879;-84
2022/07/06 22:30:19;;;;;;;1.95;1.10;;;;;;;17.65;62.96;100816.50;3512325;83;98837;-84
2022/07/06 22:35:20;;;;;;;3.30;1.35;;;;;;;17.66;63.16;100813.13;3519632;82;28156;-84
2022/07/06 22:45:41;;;;;;;2.65;0.95;;;;;;;17.63;63.58;100806.99;3513678;81;99075;-85
2022/07/06 22:50:41;;;;;;;2.77;1.60;;;;;;;17.61;63.71;100808.79;3445978;84;99315;-85
2022/07/06 22:55:42;;;;;;;2.02;0.85;;;;;;;17.59;63.70;100798.69;3525201;81;98958;-85
2022/07/06 23:00:43;;;;;;;3.47;0.80;;;;;;;17.55;63.72;100798.55;3578785;80;99115;-86
2022/07/06 23:05:44;;;;;;;2.65;0.90;;;;;;;17.55;63.92;100800.71;3540032;82;32431;-85
2022/07/06 23:10:45;;;;;;;4.37;1.57;;;;;;;17.54;64.31;100797.75;3516605;80;99183;-85
2022/07/06 23:15:47;;;;;;;5.80;1.40;;;;;;;17.53;64.04;100791.20;3524428;81;99172;-85
2022/07/06 23:20:48;;;;;;;5.15;1.35;;;;;;;17.49;64.52;100794.02;3570194;80;99054;-85
2022/07/06 23:25:49;;;;;;;3.05;1.17;;;;;;;17.50;64.71;100793.44;3537280;82;99326;-85
2022/07/06 23:30:50;;;;;;;4.33;1.17;;;;;;;17.42;64.67;100798.28;3520515;82;98894;-84
2022/07/06 23:35:50;;;;;;;2.87;0.82;;;;;;;17.42;64.90;100794.11;3526754;83;26118;-85